sensor_id;sensor_type;location;lat;lon;timestamp;pressure;altitude;pressure_sealevel;temperature
24586;BMP280;12743;52.262;6.172;2022-10-30T00:01:21;101180.72;;;15.04
24586;BMP280;12743;52.262;6.172;2022-10-30T00:03:47;101204.78;;;15.14
24586;BMP280;12743;52.262;6.172;2022-10-30T00:06:12;101205.03;;;15.09
24586;BMP280;12743;52.262;6.172;2022-10-30T00:08:37;101203.50;;;15.08
24586;BMP280;12743;52.262;6.172;2022-10-30T00:11:11;101199.91;;;15.01
24586;BMP280;12743;52.262;6.172;2022-10-30T00:13:37;101194.81;;;14.92
24586;BMP280;12743;52.262;6.172;2022-10-30T00:16:05;101198.50;;;14.88
24586;BMP280;12743;52.262;6.172;2022-10-30T00:18:31;101197.91;;;14.94
24586;BMP280;12743;52.262;6.172;2022-10-30T00:20:56;101185.94;;;14.85
24586;BMP280;12743;52.262;6.172;2022-10-30T00:23:21;101189.78;;;14.87
24586;BMP280;12743;52.262;6.172;2022-10-30T00:25:47;101200.09;;;14.92
24586;BMP280;12743;52.262;6.172;2022-10-30T00:28:12;101203.53;;;14.77
24586;BMP280;12743;52.262;6.172;2022-10-30T00:30:38;101202.50;;;14.82
24586;BMP280;12743;52.262;6.172;2022-10-30T00:33:04;101208.97;;;14.84
24586;BMP280;12743;52.262;6.172;2022-10-30T00:35:30;101207.53;;;14.87
24586;BMP280;12743;52.262;6.172;2022-10-30T00:37:55;101193.69;;;14.78
24586;BMP280;12743;52.262;6.172;2022-10-30T00:40:21;101207.75;;;14.66
24586;BMP280;12743;52.262;6.172;2022-10-30T00:42:46;101179.44;;;14.67
24586;BMP280;12743;52.262;6.172;2022-10-30T00:45:14;101196.75;;;14.80
24586;BMP280;12743;52.262;6.172;2022-10-30T00:47:54;101199.88;;;14.82
24586;BMP280;12743;52.262;6.172;2022-10-30T00:50:27;101189.09;;;14.75
24586;BMP280;12743;52.262;6.172;2022-10-30T00:52:59;101199.59;;;14.71
24586;BMP280;12743;52.262;6.172;2022-10-30T00:55:29;101206.84;;;14.74
24586;BMP280;12743;52.262;6.172;2022-10-30T00:57:57;101204.19;;;14.74
24586;BMP280;12743;52.262;6.172;2022-10-30T01:00:23;101202.56;;;14.70
24586;BMP280;12743;52.262;6.172;2022-10-30T01:02:49;101205.47;;;14.65
24586;BMP280;12743;52.262;6.172;2022-10-30T01:05:17;101203.41;;;14.74
24586;BMP280;12743;52.262;6.172;2022-10-30T01:07:44;101202.56;;;14.70
24586;BMP280;12743;52.262;6.172;2022-10-30T01:10:11;101195.38;;;14.55
24586;BMP280;12743;52.262;6.172;2022-10-30T01:12:37;101193.84;;;14.54
24586;BMP280;12743;52.262;6.172;2022-10-30T01:15:02;101196.50;;;14.54
24586;BMP280;12743;52.262;6.172;2022-10-30T01:17:53;101194.03;;;14.61
24586;BMP280;12743;52.262;6.172;2022-10-30T01:20:46;101204.31;;;14.50
24586;BMP280;12743;52.262;6.172;2022-10-30T01:26:02;101196.56;;;14.41
24586;BMP280;12743;52.262;6.172;2022-10-30T01:34:25;101205.41;;;14.33
24586;BMP280;12743;52.262;6.172;2022-10-30T01:37:07;101213.59;;;14.44
24586;BMP280;12743;52.262;6.172;2022-10-30T01:39:36;101213.78;;;14.35
24586;BMP280;12743;52.262;6.172;2022-10-30T01:42:10;101186.88;;;14.18
24586;BMP280;12743;52.262;6.172;2022-10-30T01:44:36;101212.13;;;14.31
24586;BMP280;12743;52.262;6.172;2022-10-30T01:47:21;101219.16;;;14.39
24586;BMP280;12743;52.262;6.172;2022-10-30T01:53:03;101210.41;;;14.23
24586;BMP280;12743;52.262;6.172;2022-10-30T01:55:42;101200.75;;;14.15
24586;BMP280;12743;52.262;6.172;2022-10-30T01:58:21;101214.94;;;14.22
24586;BMP280;12743;52.262;6.172;2022-10-30T02:00:54;101214.59;;;14.24
24586;BMP280;12743;52.262;6.172;2022-10-30T02:03:21;101201.63;;;14.19
24586;BMP280;12743;52.262;6.172;2022-10-30T02:05:48;101214.94;;;14.22
24586;BMP280;12743;52.262;6.172;2022-10-30T02:08:17;101185.69;;;14.03
24586;BMP280;12743;52.262;6.172;2022-10-30T02:10:45;101199.38;;;14.05
24586;BMP280;12743;52.262;6.172;2022-10-30T02:13:11;101206.47;;;14.17
24586;BMP280;12743;52.262;6.172;2022-10-30T02:15:36;101175.97;;;13.92
24586;BMP280;12743;52.262;6.172;2022-10-30T02:18:03;101203.31;;;14.11
24586;BMP280;12743;52.262;6.172;2022-10-30T02:20:31;101210.13;;;14.12
24586;BMP280;12743;52.262;6.172;2022-10-30T02:22:57;101206.25;;;14.10
24586;BMP280;12743;52.262;6.172;2022-10-30T02:25:23;101202.31;;;14.04
24586;BMP280;12743;52.262;6.172;2022-10-30T02:27:48;101209.94;;;14.05
24586;BMP280;12743;52.262;6.172;2022-10-30T02:30:14;101199.94;;;13.99
24586;BMP280;12743;52.262;6.172;2022-10-30T02:32:39;101200.03;;;14.02
24586;BMP280;12743;52.262;6.172;2022-10-30T02:35:05;101211.47;;;14.06
24586;BMP280;12743;52.262;6.172;2022-10-30T02:37:30;101205.53;;;13.97
24586;BMP280;12743;52.262;6.172;2022-10-30T02:40:01;101192.13;;;13.90
24586;BMP280;12743;52.262;6.172;2022-10-30T02:42:27;101187.41;;;13.84
24586;BMP280;12743;52.262;6.172;2022-10-30T02:44:53;101209.94;;;13.93
24586;BMP280;12743;52.262;6.172;2022-10-30T02:47:18;101214.66;;;14.00
24586;BMP280;12743;52.262;6.172;2022-10-30T02:49:44;101229.31;;;13.97
24586;BMP280;12743;52.262;6.172;2022-10-30T02:52:09;101206.63;;;13.68
24586;BMP280;12743;52.262;6.172;2022-10-30T02:54:35;101226.44;;;13.90
24586;BMP280;12743;52.262;6.172;2022-10-30T02:57:00;101229.09;;;13.90
24586;BMP280;12743;52.262;6.172;2022-10-30T02:59:26;101213.94;;;13.87
24586;BMP280;12743;52.262;6.172;2022-10-30T03:01:52;101207.56;;;13.76
24586;BMP280;12743;52.262;6.172;2022-10-30T03:04:18;101222.84;;;13.83
24586;BMP280;12743;52.262;6.172;2022-10-30T03:06:43;101222.19;;;13.86
24586;BMP280;12743;52.262;6.172;2022-10-30T03:09:08;101214.59;;;13.84
24586;BMP280;12743;52.262;6.172;2022-10-30T03:11:34;101216.91;;;13.86
24586;BMP280;12743;52.262;6.172;2022-10-30T03:13:59;101226.91;;;13.80
24586;BMP280;12743;52.262;6.172;2022-10-30T03:16:26;101235.97;;;13.67
24586;BMP280;12743;52.262;6.172;2022-10-30T03:18:56;101216.16;;;13.61
24586;BMP280;12743;52.262;6.172;2022-10-30T03:21:24;101226.28;;;13.59
24586;BMP280;12743;52.262;6.172;2022-10-30T03:23:50;101237.53;;;13.56
24586;BMP280;12743;52.262;6.172;2022-10-30T03:26:16;101239.94;;;13.61
24586;BMP280;12743;52.262;6.172;2022-10-30T03:28:50;101236.06;;;13.58
24586;BMP280;12743;52.262;6.172;2022-10-30T03:31:17;101228.81;;;13.67
24586;BMP280;12743;52.262;6.172;2022-10-30T03:33:43;101205.41;;;13.54
24586;BMP280;12743;52.262;6.172;2022-10-30T03:36:12;101223.66;;;13.59
24586;BMP280;12743;52.262;6.172;2022-10-30T03:38:38;101241.47;;;13.62
24586;BMP280;12743;52.262;6.172;2022-10-30T03:41:04;101226.75;;;13.49
24586;BMP280;12743;52.262;6.172;2022-10-30T03:43:30;101232.88;;;13.65
24586;BMP280;12743;52.262;6.172;2022-10-30T03:45:55;101232.88;;;13.65
24586;BMP280;12743;52.262;6.172;2022-10-30T03:48:23;101245.00;;;13.66
24586;BMP280;12743;52.262;6.172;2022-10-30T03:50:48;101227.19;;;13.51
24586;BMP280;12743;52.262;6.172;2022-10-30T03:53:14;101234.00;;;13.52
24586;BMP280;12743;52.262;6.172;2022-10-30T03:55:40;101247.31;;;13.55
24586;BMP280;12743;52.262;6.172;2022-10-30T03:58:06;101244.69;;;13.55
24586;BMP280;12743;52.262;6.172;2022-10-30T04:00:32;101242.81;;;13.56
24586;BMP280;12743;52.262;6.172;2022-10-30T04:02:58;101249.50;;;13.53
24586;BMP280;12743;52.262;6.172;2022-10-30T04:05:26;101249.97;;;13.55
24586;BMP280;12743;52.262;6.172;2022-10-30T04:07:59;101244.97;;;13.54
24586;BMP280;12743;52.262;6.172;2022-10-30T04:10:26;101249.41;;;13.50
24586;BMP280;12743;52.262;6.172;2022-10-30T04:13:05;101225.84;;;13.33
24586;BMP280;12743;52.262;6.172;2022-10-30T04:15:32;101223.34;;;13.24
24586;BMP280;12743;52.262;6.172;2022-10-30T04:17:57;101242.25;;;13.26
24586;BMP280;12743;52.262;6.172;2022-10-30T04:20:24;101242.47;;;13.33
24586;BMP280;12743;52.262;6.172;2022-10-30T04:22:58;101241.47;;;13.38
24586;BMP280;12743;52.262;6.172;2022-10-30T04:25:24;101245.09;;;13.33
24586;BMP280;12743;52.262;6.172;2022-10-30T04:27:50;101224.66;;;13.18
24586;BMP280;12743;52.262;6.172;2022-10-30T04:30:20;101247.84;;;13.25
24586;BMP280;12743;52.262;6.172;2022-10-30T04:32:56;101244.78;;;13.23
24586;BMP280;12743;52.262;6.172;2022-10-30T04:35:24;101245.22;;;13.25
24586;BMP280;12743;52.262;6.172;2022-10-30T04:37:53;101245.41;;;13.32
24586;BMP280;12743;52.262;6.172;2022-10-30T04:40:19;101236.31;;;13.29
24586;BMP280;12743;52.262;6.172;2022-10-30T04:42:52;101203.66;;;13.10
24586;BMP280;12743;52.262;6.172;2022-10-30T04:45:18;101234.53;;;13.21
24586;BMP280;12743;52.262;6.172;2022-10-30T04:47:43;101250.00;;;13.11
24586;BMP280;12743;52.262;6.172;2022-10-30T04:50:09;101254.63;;;13.14
24586;BMP280;12743;52.262;6.172;2022-10-30T04:52:34;101247.06;;;13.12
24586;BMP280;12743;52.262;6.172;2022-10-30T04:55:00;101260.38;;;13.16
24586;BMP280;12743;52.262;6.172;2022-10-30T04:57:26;101255.88;;;13.16
24586;BMP280;12743;52.262;6.172;2022-10-30T04:59:51;101252.75;;;13.14
24586;BMP280;12743;52.262;6.172;2022-10-30T05:02:17;101247.06;;;13.12
24586;BMP280;12743;52.262;6.172;2022-10-30T05:04:45;101257.25;;;13.14
24586;BMP280;12743;52.262;6.172;2022-10-30T05:07:11;101238.69;;;12.98
24586;BMP280;12743;52.262;6.172;2022-10-30T05:09:37;101235.41;;;13.13
24586;BMP280;12743;52.262;6.172;2022-10-30T05:12:03;101205.97;;;12.99
24586;BMP280;12743;52.262;6.172;2022-10-30T05:14:35;101216.38;;;13.08
24586;BMP280;12743;52.262;6.172;2022-10-30T05:17:01;101221.25;;;13.06
24586;BMP280;12743;52.262;6.172;2022-10-30T05:19:26;101238.94;;;13.05
24586;BMP280;12743;52.262;6.172;2022-10-30T05:21:54;101228.47;;;12.97
24586;BMP280;12743;52.262;6.172;2022-10-30T05:24:19;101231.09;;;12.97
24586;BMP280;12743;52.262;6.172;2022-10-30T05:26:45;101219.44;;;12.98
24586;BMP280;12743;52.262;6.172;2022-10-30T05:29:11;101223.97;;;12.97
24586;BMP280;12743;52.262;6.172;2022-10-30T05:31:37;101221.19;;;12.93
24586;BMP280;12743;52.262;6.172;2022-10-30T05:34:25;101230.97;;;12.93
24586;BMP280;12743;52.262;6.172;2022-10-30T05:36:51;101223.59;;;12.86
24586;BMP280;12743;52.262;6.172;2022-10-30T05:39:18;101225.25;;;12.91
24586;BMP280;12743;52.262;6.172;2022-10-30T05:41:47;101221.75;;;12.87
24586;BMP280;12743;52.262;6.172;2022-10-30T05:44:14;101231.50;;;12.86
24586;BMP280;12743;52.262;6.172;2022-10-30T05:46:42;101238.28;;;12.75
24586;BMP280;12743;52.262;6.172;2022-10-30T05:49:17;101231.88;;;12.64
24586;BMP280;12743;52.262;6.172;2022-10-30T05:51:42;101238.84;;;12.81
24586;BMP280;12743;52.262;6.172;2022-10-30T05:54:09;101234.56;;;12.76
24586;BMP280;12743;52.262;6.172;2022-10-30T05:56:39;101236.75;;;12.74
24586;BMP280;12743;52.262;6.172;2022-10-30T05:59:05;101233.69;;;12.72
24586;BMP280;12743;52.262;6.172;2022-10-30T06:01:30;101232.47;;;12.70
24586;BMP280;12743;52.262;6.172;2022-10-30T06:03:58;101230.47;;;12.67
24586;BMP280;12743;52.262;6.172;2022-10-30T06:06:23;101229.59;;;12.63
24586;BMP280;12743;52.262;6.172;2022-10-30T06:08:49;101230.94;;;12.48
24586;BMP280;12743;52.262;6.172;2022-10-30T06:11:32;101252.28;;;12.55
24586;BMP280;12743;52.262;6.172;2022-10-30T06:13:59;101243.06;;;12.61
24586;BMP280;12743;52.262;6.172;2022-10-30T06:16:42;101246.22;;;12.55
24586;BMP280;12743;52.262;6.172;2022-10-30T06:19:17;101254.66;;;12.48
24586;BMP280;12743;52.262;6.172;2022-10-30T06:21:43;101249.38;;;12.48
24586;BMP280;12743;52.262;6.172;2022-10-30T06:24:24;101254.78;;;12.52
24586;BMP280;12743;52.262;6.172;2022-10-30T06:27:10;101266.38;;;12.39
24586;BMP280;12743;52.262;6.172;2022-10-30T06:29:35;101274.88;;;12.44
24586;BMP280;12743;52.262;6.172;2022-10-30T06:32:01;101250.81;;;12.46
24586;BMP280;12743;52.262;6.172;2022-10-30T06:34:26;101260.41;;;12.50
24586;BMP280;12743;52.262;6.172;2022-10-30T06:36:52;101256.66;;;12.51
24586;BMP280;12743;52.262;6.172;2022-10-30T06:39:17;101264.38;;;12.56
24586;BMP280;12743;52.262;6.172;2022-10-30T06:41:57;101255.69;;;12.56
24586;BMP280;12743;52.262;6.172;2022-10-30T06:44:46;101255.38;;;12.57
24586;BMP280;12743;52.262;6.172;2022-10-30T06:47:14;101236.94;;;12.37
24586;BMP280;12743;52.262;6.172;2022-10-30T06:49:40;101226.97;;;12.21
24586;BMP280;12743;52.262;6.172;2022-10-30T06:52:06;101252.69;;;12.45
24586;BMP280;12743;52.262;6.172;2022-10-30T06:54:31;101244.09;;;12.48
24586;BMP280;12743;52.262;6.172;2022-10-30T06:56:59;101238.06;;;12.48
24586;BMP280;12743;52.262;6.172;2022-10-30T06:59:28;101234.09;;;12.42
24586;BMP280;12743;52.262;6.172;2022-10-30T07:02:14;101248.44;;;12.53
24586;BMP280;12743;52.262;6.172;2022-10-30T07:04:53;101247.13;;;12.59
24586;BMP280;12743;52.262;6.172;2022-10-30T07:07:18;101244.50;;;12.59
24586;BMP280;12743;52.262;6.172;2022-10-30T07:09:44;101250.97;;;12.61
24586;BMP280;12743;52.262;6.172;2022-10-30T07:12:11;101243.97;;;12.65
24586;BMP280;12743;52.262;6.172;2022-10-30T07:14:55;101234.63;;;12.68
24586;BMP280;12743;52.262;6.172;2022-10-30T07:17:30;101173.91;;;12.32
24586;BMP280;12743;52.262;6.172;2022-10-30T07:20:01;101230.91;;;12.69
24586;BMP280;12743;52.262;6.172;2022-10-30T07:22:27;101225.00;;;12.72
24586;BMP280;12743;52.262;6.172;2022-10-30T07:24:53;101219.03;;;12.63
24586;BMP280;12743;52.262;6.172;2022-10-30T07:27:28;101199.38;;;12.60
24586;BMP280;12743;52.262;6.172;2022-10-30T07:30:24;101230.81;;;12.77
24586;BMP280;12743;52.262;6.172;2022-10-30T07:33:08;101230.38;;;12.75
24586;BMP280;12743;52.262;6.172;2022-10-30T07:35:52;101231.34;;;12.71
24586;BMP280;12743;52.262;6.172;2022-10-30T07:38:36;101216.97;;;12.68
24586;BMP280;12743;52.262;6.172;2022-10-30T07:41:20;101226.78;;;12.80
24586;BMP280;12743;52.262;6.172;2022-10-30T07:43:48;101219.00;;;12.83
24586;BMP280;12743;52.262;6.172;2022-10-30T07:46:32;101245.28;;;12.92
24586;BMP280;12743;52.262;6.172;2022-10-30T07:49:18;101220.91;;;12.74
24586;BMP280;12743;52.262;6.172;2022-10-30T07:51:48;101258.34;;;13.01
24586;BMP280;12743;52.262;6.172;2022-10-30T07:54:14;101255.09;;;13.04
24586;BMP280;12743;52.262;6.172;2022-10-30T07:56:39;101257.63;;;13.12
24586;BMP280;12743;52.262;6.172;2022-10-30T07:59:16;101258.38;;;13.13
24586;BMP280;12743;52.262;6.172;2022-10-30T08:02:14;101256.66;;;13.17
24586;BMP280;12743;52.262;6.172;2022-10-30T08:05:06;101255.31;;;13.35
24586;BMP280;12743;52.262;6.172;2022-10-30T08:07:50;101257.41;;;13.41
24586;BMP280;12743;52.262;6.172;2022-10-30T08:10:16;101244.78;;;13.35
24586;BMP280;12743;52.262;6.172;2022-10-30T08:12:41;101244.69;;;13.43
24586;BMP280;12743;52.262;6.172;2022-10-30T08:15:09;101260.72;;;13.50
24586;BMP280;12743;52.262;6.172;2022-10-30T08:17:43;101256.63;;;13.41
24586;BMP280;12743;52.262;6.172;2022-10-30T08:20:10;101248.72;;;13.41
24586;BMP280;12743;52.262;6.172;2022-10-30T08:22:49;101245.53;;;13.47
24586;BMP280;12743;52.262;6.172;2022-10-30T08:25:20;101244.22;;;13.53
24586;BMP280;12743;52.262;6.172;2022-10-30T08:28:05;101237.75;;;13.51
24586;BMP280;12743;52.262;6.172;2022-10-30T08:30:35;101245.44;;;13.56
24586;BMP280;12743;52.262;6.172;2022-10-30T08:33:07;101247.41;;;13.59
24586;BMP280;12743;52.262;6.172;2022-10-30T08:35:55;101237.38;;;13.64
24586;BMP280;12743;52.262;6.172;2022-10-30T08:38:21;101228.91;;;13.71
24586;BMP280;12743;52.262;6.172;2022-10-30T08:41:04;101234.31;;;13.75
24586;BMP280;12743;52.262;6.172;2022-10-30T08:43:31;101228.25;;;13.74
24586;BMP280;12743;52.262;6.172;2022-10-30T08:45:59;101202.41;;;13.67
24586;BMP280;12743;52.262;6.172;2022-10-30T08:48:24;101234.16;;;13.95
24586;BMP280;12743;52.262;6.172;2022-10-30T08:50:50;101233.06;;;13.96
24586;BMP280;12743;52.262;6.172;2022-10-30T08:53:23;101237.22;;;14.09
24586;BMP280;12743;52.262;6.172;2022-10-30T08:55:50;101233.53;;;14.14
24586;BMP280;12743;52.262;6.172;2022-10-30T08:58:23;101236.97;;;14.14
24586;BMP280;12743;52.262;6.172;2022-10-30T09:00:48;101231.09;;;14.21
24586;BMP280;12743;52.262;6.172;2022-10-30T09:03:14;101230.22;;;14.29
24586;BMP280;12743;52.262;6.172;2022-10-30T09:06:02;101204.03;;;14.24
24586;BMP280;12743;52.262;6.172;2022-10-30T09:08:50;101224.38;;;14.51
24586;BMP280;12743;52.262;6.172;2022-10-30T09:11:28;101205.38;;;14.45
24586;BMP280;12743;52.262;6.172;2022-10-30T09:13:55;101226.53;;;14.61
24586;BMP280;12743;52.262;6.172;2022-10-30T09:16:21;101220.28;;;14.69
24586;BMP280;12743;52.262;6.172;2022-10-30T09:18:48;101225.84;;;14.80
24586;BMP280;12743;52.262;6.172;2022-10-30T09:21:13;101234.38;;;14.89
24586;BMP280;12743;52.262;6.172;2022-10-30T09:23:43;101232.19;;;14.91
24586;BMP280;12743;52.262;6.172;2022-10-30T09:26:28;101232.28;;;14.94
24586;BMP280;12743;52.262;6.172;2022-10-30T09:29:01;101240.38;;;15.01
24586;BMP280;12743;52.262;6.172;2022-10-30T09:31:45;101218.97;;;14.91
24586;BMP280;12743;52.262;6.172;2022-10-30T09:34:15;101235.94;;;15.05
24586;BMP280;12743;52.262;6.172;2022-10-30T09:36:46;101234.06;;;15.06
24586;BMP280;12743;52.262;6.172;2022-10-30T09:39:14;101235.69;;;15.10
24586;BMP280;12743;52.262;6.172;2022-10-30T09:45:03;101247.44;;;15.44
24586;BMP280;12743;52.262;6.172;2022-10-30T09:47:53;101221.47;;;15.34
24586;BMP280;12743;52.262;6.172;2022-10-30T09:50:30;101234.00;;;15.53
24586;BMP280;12743;52.262;6.172;2022-10-30T09:53:38;101246.56;;;15.56
24586;BMP280;12743;52.262;6.172;2022-10-30T09:56:23;101241.94;;;15.53
24586;BMP280;12743;52.262;6.172;2022-10-30T10:01:59;101246.44;;;15.68
24586;BMP280;12743;52.262;6.172;2022-10-30T10:04:42;101257.16;;;15.75
24586;BMP280;12743;52.262;6.172;2022-10-30T10:07:19;101250.56;;;15.84
24586;BMP280;12743;52.262;6.172;2022-10-30T10:10:05;101236.19;;;15.85
24586;BMP280;12743;52.262;6.172;2022-10-30T10:12:49;101238.13;;;15.88
24586;BMP280;12743;52.262;6.172;2022-10-30T10:15:38;101236.34;;;15.92
24586;BMP280;12743;52.262;6.172;2022-10-30T10:18:16;101230.84;;;16.01
24586;BMP280;12743;52.262;6.172;2022-10-30T10:20:44;101232.03;;;16.03
24586;BMP280;12743;52.262;6.172;2022-10-30T10:23:20;101232.88;;;16.07
24586;BMP280;12743;52.262;6.172;2022-10-30T10:25:52;101249.94;;;16.29
24586;BMP280;12743;52.262;6.172;2022-10-30T10:31:07;101237.44;;;16.30
24586;BMP280;12743;52.262;6.172;2022-10-30T10:33:59;101241.66;;;16.53
24586;BMP280;12743;52.262;6.172;2022-10-30T10:37:03;101254.81;;;16.69
24586;BMP280;12743;52.262;6.172;2022-10-30T10:39:45;101271.25;;;16.78
24586;BMP280;12743;52.262;6.172;2022-10-30T10:42:17;101273.25;;;16.84
24586;BMP280;12743;52.262;6.172;2022-10-30T10:44:54;101268.88;;;16.73
24586;BMP280;12743;52.262;6.172;2022-10-30T10:47:38;101259.09;;;16.77
24586;BMP280;12743;52.262;6.172;2022-10-30T10:50:17;101270.00;;;16.94
24586;BMP280;12743;52.262;6.172;2022-10-30T10:52:56;101261.53;;;16.85
24586;BMP280;12743;52.262;6.172;2022-10-30T10:55:28;101247.91;;;16.87
24586;BMP280;12743;52.262;6.172;2022-10-30T10:58:01;101257.88;;;16.97
24586;BMP280;12743;52.262;6.172;2022-10-30T11:00:29;101262.88;;;16.98
24586;BMP280;12743;52.262;6.172;2022-10-30T11:03:06;101259.84;;;17.00
24586;BMP280;12743;52.262;6.172;2022-10-30T11:05:38;101259.81;;;16.96
24586;BMP280;12743;52.262;6.172;2022-10-30T11:08:26;101251.88;;;17.00
24586;BMP280;12743;52.262;6.172;2022-10-30T11:11:00;101252.31;;;17.02
24586;BMP280;12743;52.262;6.172;2022-10-30T11:13:34;101252.38;;;17.06
24586;BMP280;12743;52.262;6.172;2022-10-30T11:16:35;101247.53;;;17.11
24586;BMP280;12743;52.262;6.172;2022-10-30T11:19:03;101240.66;;;17.10
24586;BMP280;12743;52.262;6.172;2022-10-30T11:21:37;101241.81;;;17.09
24586;BMP280;12743;52.262;6.172;2022-10-30T11:24:25;101237.41;;;17.20
24586;BMP280;12743;52.262;6.172;2022-10-30T11:26:50;101226.38;;;17.18
24586;BMP280;12743;52.262;6.172;2022-10-30T11:29:26;101223.78;;;17.22
24586;BMP280;12743;52.262;6.172;2022-10-30T11:32:02;101232.09;;;17.46
24586;BMP280;12743;52.262;6.172;2022-10-30T11:34:30;101204.50;;;17.54
24586;BMP280;12743;52.262;6.172;2022-10-30T11:36:56;101214.81;;;17.63
24586;BMP280;12743;52.262;6.172;2022-10-30T11:39:40;101211.09;;;17.67
24586;BMP280;12743;52.262;6.172;2022-10-30T11:42:11;101214.97;;;17.73
24586;BMP280;12743;52.262;6.172;2022-10-30T11:44:43;101221.97;;;17.88
24586;BMP280;12743;52.262;6.172;2022-10-30T11:47:10;101227.44;;;18.03
24586;BMP280;12743;52.262;6.172;2022-10-30T11:49:49;101215.41;;;18.12
24586;BMP280;12743;52.262;6.172;2022-10-30T11:52:19;101214.19;;;18.10
24586;BMP280;12743;52.262;6.172;2022-10-30T11:54:53;101215.47;;;18.23
24586;BMP280;12743;52.262;6.172;2022-10-30T11:57:21;101215.47;;;18.23
24586;BMP280;12743;52.262;6.172;2022-10-30T11:59:49;101211.25;;;18.18
24586;BMP280;12743;52.262;6.172;2022-10-30T12:02:21;101208.84;;;18.46
24586;BMP280;12743;52.262;6.172;2022-10-30T12:04:49;101206.59;;;18.52
24586;BMP280;12743;52.262;6.172;2022-10-30T12:07:23;101208.16;;;18.53
24586;BMP280;12743;52.262;6.172;2022-10-30T12:09:50;101203.94;;;18.48
24586;BMP280;12743;52.262;6.172;2022-10-30T12:14:53;101199.84;;;18.58
24586;BMP280;12743;52.262;6.172;2022-10-30T12:17:20;101205.63;;;18.70
24586;BMP280;12743;52.262;6.172;2022-10-30T12:19:48;101201.91;;;18.82
24586;BMP280;12743;52.262;6.172;2022-10-30T12:22:31;101198.44;;;18.78
24586;BMP280;12743;52.262;6.172;2022-10-30T12:25:06;101180.88;;;18.66
24586;BMP280;12743;52.262;6.172;2022-10-30T12:27:39;101197.25;;;18.72
24586;BMP280;12743;52.262;6.172;2022-10-30T12:30:09;101197.59;;;18.63
24586;BMP280;12743;52.262;6.172;2022-10-30T12:35:56;101193.09;;;18.71
24586;BMP280;12743;52.262;6.172;2022-10-30T12:38:56;101188.22;;;18.87
24586;BMP280;12743;52.262;6.172;2022-10-30T12:41:28;101187.84;;;18.85
24586;BMP280;12743;52.262;6.172;2022-10-30T12:44:03;101185.63;;;18.91
24586;BMP280;12743;52.262;6.172;2022-10-30T12:46:37;101195.09;;;18.88
24586;BMP280;12743;52.262;6.172;2022-10-30T12:49:19;101194.72;;;18.93
24586;BMP280;12743;52.262;6.172;2022-10-30T12:51:57;101168.03;;;18.79
24586;BMP280;12743;52.262;6.172;2022-10-30T12:57:10;101187.81;;;18.81
24586;BMP280;12743;52.262;6.172;2022-10-30T12:59:49;101184.41;;;18.81
24586;BMP280;12743;52.262;6.172;2022-10-30T13:02:26;101185.94;;;18.82
24586;BMP280;12743;52.262;6.172;2022-10-30T13:04:57;101185.19;;;18.89
24586;BMP280;12743;52.262;6.172;2022-10-30T13:07:48;101190.50;;;18.85
24586;BMP280;12743;52.262;6.172;2022-10-30T13:10:26;101183.28;;;18.86
24586;BMP280;12743;52.262;6.172;2022-10-30T13:13:00;101177.88;;;18.75
24586;BMP280;12743;52.262;6.172;2022-10-30T13:15:30;101178.59;;;18.65
24586;BMP280;12743;52.262;6.172;2022-10-30T13:17:58;101169.47;;;18.66
24586;BMP280;12743;52.262;6.172;2022-10-30T13:20:27;101166.38;;;18.60
24586;BMP280;12743;52.262;6.172;2022-10-30T13:23:01;101158.81;;;18.62
24586;BMP280;12743;52.262;6.172;2022-10-30T13:25:40;101163.34;;;18.58
24586;BMP280;12743;52.262;6.172;2022-10-30T13:28:23;101164.50;;;18.61
24586;BMP280;12743;52.262;6.172;2022-10-30T13:31:07;101162.59;;;18.58
24586;BMP280;12743;52.262;6.172;2022-10-30T13:33:49;101168.25;;;18.56
24586;BMP280;12743;52.262;6.172;2022-10-30T13:36:34;101170.16;;;18.56
24586;BMP280;12743;52.262;6.172;2022-10-30T13:42:18;101157.97;;;18.51
24586;BMP280;12743;52.262;6.172;2022-10-30T13:45:16;101155.25;;;18.41
24586;BMP280;12743;52.262;6.172;2022-10-30T13:47:58;101159.13;;;18.50
24586;BMP280;12743;52.262;6.172;2022-10-30T13:50:39;101151.84;;;18.44
24586;BMP280;12743;52.262;6.172;2022-10-30T13:53:13;101131.66;;;18.39
24586;BMP280;12743;52.262;6.172;2022-10-30T13:55:40;101163.44;;;18.72
24586;BMP280;12743;52.262;6.172;2022-10-30T14:01:01;101135.06;;;18.98
24586;BMP280;12743;52.262;6.172;2022-10-30T14:06:48;101138.53;;;19.09
24586;BMP280;12743;52.262;6.172;2022-10-30T14:09:38;101122.84;;;18.90
24586;BMP280;12743;52.262;6.172;2022-10-30T14:15:19;101116.31;;;18.73
24586;BMP280;12743;52.262;6.172;2022-10-30T14:20:44;101139.81;;;18.64
24586;BMP280;12743;52.262;6.172;2022-10-30T14:23:21;101143.94;;;18.54
24586;BMP280;12743;52.262;6.172;2022-10-30T14:28:29;101153.31;;;18.41
24586;BMP280;12743;52.262;6.172;2022-10-30T14:31:08;101152.50;;;18.34
24586;BMP280;12743;52.262;6.172;2022-10-30T14:33:44;101160.06;;;18.28
24586;BMP280;12743;52.262;6.172;2022-10-30T14:37:02;101160.03;;;18.21
24586;BMP280;12743;52.262;6.172;2022-10-30T14:41:51;101161.09;;;18.17
24586;BMP280;12743;52.262;6.172;2022-10-30T14:44:36;101165.19;;;18.07
24586;BMP280;12743;52.262;6.172;2022-10-30T14:58:36;101161.13;;;17.80
24586;BMP280;12743;52.262;6.172;2022-10-30T15:03:48;101178.66;;;17.84
24586;BMP280;12743;52.262;6.172;2022-10-30T15:11:34;101183.13;;;17.80
24586;BMP280;12743;52.262;6.172;2022-10-30T15:14:09;101172.88;;;17.75
24586;BMP280;12743;52.262;6.172;2022-10-30T15:16:37;101185.69;;;17.70
24586;BMP280;12743;52.262;6.172;2022-10-30T15:19:06;101194.03;;;17.68
24586;BMP280;12743;52.262;6.172;2022-10-30T15:21:37;101194.34;;;17.63
24586;BMP280;12743;52.262;6.172;2022-10-30T15:24:12;101192.84;;;17.66
24586;BMP280;12743;52.262;6.172;2022-10-30T15:26:38;101190.91;;;17.59
24586;BMP280;12743;52.262;6.172;2022-10-30T15:29:04;101206.88;;;17.66
24586;BMP280;12743;52.262;6.172;2022-10-30T15:31:30;101191.19;;;17.54
24586;BMP280;12743;52.262;6.172;2022-10-30T15:33:57;101197.31;;;17.58